sensor_id;sensor_type;location;lat;lon;timestamp;temperature;humidity
20957;DHT22;10637;47.970;7.830;2024-02-21T00:02:14;6.80;99.90
20957;DHT22;10637;47.970;7.830;2024-02-21T00:07:16;6.50;99.90
20957;DHT22;10637;47.970;7.830;2024-02-21T00:12:18;6.60;99.90
20957;DHT22;10637;47.970;7.830;2024-02-21T00:17:20;6.70;99.90
20957;DHT22;10637;47.970;7.830;2024-02-21T00:22:22;6.80;99.90
20957;DHT22;10637;47.970;7.830;2024-02-21T00:27:24;6.70;99.90
20957;DHT22;10637;47.970;7.830;2024-02-21T00:32:26;6.70;99.90
20957;DHT22;10637;47.970;7.830;2024-02-21T00:37:27;6.80;99.90
20957;DHT22;10637;47.970;7.830;2024-02-21T00:42:29;6.90;99.90
20957;DHT22;10637;47.970;7.830;2024-02-21T00:47:31;6.90;99.90
20957;DHT22;10637;47.970;7.830;2024-02-21T00:52:33;6.90;99.90
20957;DHT22;10637;47.970;7.830;2024-02-21T00:57:35;6.90;99.90
20957;DHT22;10637;47.970;7.830;2024-02-21T01:02:36;6.90;99.90
20957;DHT22;10637;47.970;7.830;2024-02-21T01:07:38;7.10;99.90
20957;DHT22;10637;47.970;7.830;2024-02-21T01:12:40;7.00;99.90
20957;DHT22;10637;47.970;7.830;2024-02-21T01:17:42;6.90;99.90
20957;DHT22;10637;47.970;7.830;2024-02-21T01:22:44;6.80;99.90
20957;DHT22;10637;47.970;7.830;2024-02-21T01:27:45;6.90;99.90
20957;DHT22;10637;47.970;7.830;2024-02-21T01:32:47;7.00;99.90
20957;DHT22;10637;47.970;7.830;2024-02-21T01:37:49;7.10;99.90
20957;DHT22;10637;47.970;7.830;2024-02-21T01:42:54;7.10;99.90
20957;DHT22;10637;47.970;7.830;2024-02-21T01:47:56;7.10;99.90
20957;DHT22;10637;47.970;7.830;2024-02-21T01:52:58;7.10;99.90
20957;DHT22;10637;47.970;7.830;2024-02-21T01:58:00;7.00;99.90
20957;DHT22;10637;47.970;7.830;2024-02-21T02:03:03;7.10;99.90
20957;DHT22;10637;47.970;7.830;2024-02-21T02:08:06;7.20;99.90
20957;DHT22;10637;47.970;7.830;2024-02-21T02:13:08;7.10;99.90
20957;DHT22;10637;47.970;7.830;2024-02-21T02:18:11;7.10;99.90
20957;DHT22;10637;47.970;7.830;2024-02-21T02:23:25;6.90;99.90
20957;DHT22;10637;47.970;7.830;2024-02-21T02:28:27;7.00;99.90
20957;DHT22;10637;47.970;7.830;2024-02-21T02:33:29;7.00;99.90
20957;DHT22;10637;47.970;7.830;2024-02-21T02:38:31;7.10;99.90
20957;DHT22;10637;47.970;7.830;2024-02-21T02:43:32;7.10;99.90
20957;DHT22;10637;47.970;7.830;2024-02-21T02:48:35;7.10;99.90
20957;DHT22;10637;47.970;7.830;2024-02-21T02:53:37;7.10;99.90
20957;DHT22;10637;47.970;7.830;2024-02-21T02:58:39;7.00;99.90
20957;DHT22;10637;47.970;7.830;2024-02-21T03:03:41;6.80;99.90
20957;DHT22;10637;47.970;7.830;2024-02-21T03:08:43;6.60;99.90
20957;DHT22;10637;47.970;7.830;2024-02-21T03:13:45;6.50;99.90
20957;DHT22;10637;47.970;7.830;2024-02-21T03:18:46;6.60;99.90
20957;DHT22;10637;47.970;7.830;2024-02-21T03:23:48;6.80;99.90
20957;DHT22;10637;47.970;7.830;2024-02-21T03:28:50;6.90;99.90
20957;DHT22;10637;47.970;7.830;2024-02-21T03:33:52;6.90;99.90
20957;DHT22;10637;47.970;7.830;2024-02-21T03:38:57;6.70;99.90
20957;DHT22;10637;47.970;7.830;2024-02-21T03:43:58;6.70;99.90
20957;DHT22;10637;47.970;7.830;2024-02-21T03:49:00;6.70;99.90
20957;DHT22;10637;47.970;7.830;2024-02-21T03:54:02;6.80;99.90
20957;DHT22;10637;47.970;7.830;2024-02-21T03:59:04;6.70;99.90
20957;DHT22;10637;47.970;7.830;2024-02-21T04:04:06;6.40;99.90
20957;DHT22;10637;47.970;7.830;2024-02-21T04:09:08;6.30;99.90
20957;DHT22;10637;47.970;7.830;2024-02-21T04:14:10;6.20;99.90
20957;DHT22;10637;47.970;7.830;2024-02-21T04:19:13;6.30;99.90
20957;DHT22;10637;47.970;7.830;2024-02-21T04:24:15;6.30;99.90
20957;DHT22;10637;47.970;7.830;2024-02-21T04:29:17;6.30;99.90
20957;DHT22;10637;47.970;7.830;2024-02-21T04:34:19;6.20;99.90
20957;DHT22;10637;47.970;7.830;2024-02-21T04:39:20;5.90;99.90
20957;DHT22;10637;47.970;7.830;2024-02-21T04:44:56;5.90;99.90
20957;DHT22;10637;47.970;7.830;2024-02-21T04:49:58;5.90;99.90
20957;DHT22;10637;47.970;7.830;2024-02-21T04:55:01;5.90;99.90
20957;DHT22;10637;47.970;7.830;2024-02-21T05:00:02;5.80;99.90
20957;DHT22;10637;47.970;7.830;2024-02-21T05:05:05;5.60;99.90
20957;DHT22;10637;47.970;7.830;2024-02-21T05:10:07;5.20;99.90
20957;DHT22;10637;47.970;7.830;2024-02-21T05:15:10;5.20;99.90
20957;DHT22;10637;47.970;7.830;2024-02-21T05:20:11;4.90;99.90
20957;DHT22;10637;47.970;7.830;2024-02-21T05:25:13;4.90;99.90
20957;DHT22;10637;47.970;7.830;2024-02-21T05:30:16;5.10;99.90
20957;DHT22;10637;47.970;7.830;2024-02-21T05:35:18;5.40;99.90
20957;DHT22;10637;47.970;7.830;2024-02-21T05:40:19;5.50;99.90
20957;DHT22;10637;47.970;7.830;2024-02-21T05:45:21;5.50;99.90
20957;DHT22;10637;47.970;7.830;2024-02-21T05:50:23;5.50;99.90
20957;DHT22;10637;47.970;7.830;2024-02-21T05:55:25;5.40;99.90
20957;DHT22;10637;47.970;7.830;2024-02-21T06:00:27;5.20;99.90
20957;DHT22;10637;47.970;7.830;2024-02-21T06:05:29;5.00;99.90
20957;DHT22;10637;47.970;7.830;2024-02-21T06:10:32;5.10;99.90
20957;DHT22;10637;47.970;7.830;2024-02-21T06:15:34;5.30;99.90
20957;DHT22;10637;47.970;7.830;2024-02-21T06:20:36;5.40;99.90
20957;DHT22;10637;47.970;7.830;2024-02-21T06:25:40;5.40;99.90
20957;DHT22;10637;47.970;7.830;2024-02-21T06:30:42;5.50;99.90
20957;DHT22;10637;47.970;7.830;2024-02-21T06:35:44;5.30;99.90
20957;DHT22;10637;47.970;7.830;2024-02-21T06:40:48;5.20;99.90
20957;DHT22;10637;47.970;7.830;2024-02-21T06:45:53;5.30;99.90
20957;DHT22;10637;47.970;7.830;2024-02-21T06:50:55;5.40;99.90
20957;DHT22;10637;47.970;7.830;2024-02-21T06:55:57;5.50;99.90
20957;DHT22;10637;47.970;7.830;2024-02-21T07:01:00;5.30;99.90
20957;DHT22;10637;47.970;7.830;2024-02-21T07:06:02;5.10;99.90
20957;DHT22;10637;47.970;7.830;2024-02-21T07:11:04;5.10;99.90
20957;DHT22;10637;47.970;7.830;2024-02-21T07:16:07;5.30;99.90
20957;DHT22;10637;47.970;7.830;2024-02-21T07:21:09;5.50;99.90
20957;DHT22;10637;47.970;7.830;2024-02-21T07:26:11;5.60;99.90
20957;DHT22;10637;47.970;7.830;2024-02-21T07:31:13;5.90;99.90
20957;DHT22;10637;47.970;7.830;2024-02-21T07:36:16;6.20;99.90
20957;DHT22;10637;47.970;7.830;2024-02-21T07:41:26;6.60;99.90
20957;DHT22;10637;47.970;7.830;2024-02-21T07:46:28;6.80;99.90
20957;DHT22;10637;47.970;7.830;2024-02-21T07:51:30;7.00;99.90
20957;DHT22;10637;47.970;7.830;2024-02-21T07:56:31;7.10;99.90
20957;DHT22;10637;47.970;7.830;2024-02-21T08:01:34;7.10;99.90
20957;DHT22;10637;47.970;7.830;2024-02-21T08:06:36;7.30;99.90
20957;DHT22;10637;47.970;7.830;2024-02-21T08:11:38;7.50;99.90
20957;DHT22;10637;47.970;7.830;2024-02-21T08:16:40;7.70;99.90
20957;DHT22;10637;47.970;7.830;2024-02-21T08:21:42;7.70;99.90
20957;DHT22;10637;47.970;7.830;2024-02-21T08:26:44;7.70;99.90
20957;DHT22;10637;47.970;7.830;2024-02-21T08:31:46;7.80;99.90
20957;DHT22;10637;47.970;7.830;2024-02-21T08:36:48;8.10;99.90
20957;DHT22;10637;47.970;7.830;2024-02-21T08:41:50;8.40;99.90
20957;DHT22;10637;47.970;7.830;2024-02-21T08:46:58;8.80;99.90
20957;DHT22;10637;47.970;7.830;2024-02-21T08:52:00;9.20;99.90
20957;DHT22;10637;47.970;7.830;2024-02-21T08:57:02;9.50;99.90
20957;DHT22;10637;47.970;7.830;2024-02-21T09:02:05;9.90;99.90
20957;DHT22;10637;47.970;7.830;2024-02-21T09:07:08;10.10;99.90
20957;DHT22;10637;47.970;7.830;2024-02-21T09:12:10;10.40;99.90
20957;DHT22;10637;47.970;7.830;2024-02-21T09:17:12;11.00;99.90
20957;DHT22;10637;47.970;7.830;2024-02-21T09:22:14;11.10;99.90
20957;DHT22;10637;47.970;7.830;2024-02-21T09:27:16;11.40;99.90
20957;DHT22;10637;47.970;7.830;2024-02-21T09:32:20;11.90;99.90
20957;DHT22;10637;47.970;7.830;2024-02-21T09:37:22;12.40;99.90
20957;DHT22;10637;47.970;7.830;2024-02-21T09:42:37;12.80;99.90
20957;DHT22;10637;47.970;7.830;2024-02-21T09:47:50;13.10;99.90
20957;DHT22;10637;47.970;7.830;2024-02-21T09:52:57;13.30;99.90
20957;DHT22;10637;47.970;7.830;2024-02-21T09:58:01;13.50;99.90
20957;DHT22;10637;47.970;7.830;2024-02-21T10:03:05;14.00;99.90
20957;DHT22;10637;47.970;7.830;2024-02-21T10:08:14;14.40;99.90
20957;DHT22;10637;47.970;7.830;2024-02-21T10:13:25;14.00;99.90
20957;DHT22;10637;47.970;7.830;2024-02-21T10:18:28;14.20;99.90
20957;DHT22;10637;47.970;7.830;2024-02-21T10:23:52;14.60;99.90
20957;DHT22;10637;47.970;7.830;2024-02-21T10:28:54;15.90;99.90
20957;DHT22;10637;47.970;7.830;2024-02-21T10:34:00;16.20;99.90
20957;DHT22;10637;47.970;7.830;2024-02-21T10:39:07;16.50;99.90
20957;DHT22;10637;47.970;7.830;2024-02-21T10:44:10;16.90;99.90
20957;DHT22;10637;47.970;7.830;2024-02-21T10:49:22;17.30;99.90
20957;DHT22;10637;47.970;7.830;2024-02-21T10:54:44;17.50;99.90
20957;DHT22;10637;47.970;7.830;2024-02-21T10:59:53;17.80;99.90
20957;DHT22;10637;47.970;7.830;2024-02-21T11:04:56;17.70;99.90
20957;DHT22;10637;47.970;7.830;2024-02-21T11:09:59;17.80;99.90
20957;DHT22;10637;47.970;7.830;2024-02-21T11:15:05;18.50;99.90
20957;DHT22;10637;47.970;7.830;2024-02-21T11:20:12;19.30;99.90
20957;DHT22;10637;47.970;7.830;2024-02-21T11:25:21;18.80;99.90
20957;DHT22;10637;47.970;7.830;2024-02-21T11:30:27;18.60;99.90
20957;DHT22;10637;47.970;7.830;2024-02-21T11:35:36;17.90;99.90
20957;DHT22;10637;47.970;7.830;2024-02-21T11:40:44;18.30;99.90
20957;DHT22;10637;47.970;7.830;2024-02-21T11:45:46;18.50;99.90
20957;DHT22;10637;47.970;7.830;2024-02-21T11:50:54;18.10;99.90
20957;DHT22;10637;47.970;7.830;2024-02-21T11:55:57;17.00;99.90
20957;DHT22;10637;47.970;7.830;2024-02-21T12:00:59;16.90;99.90
20957;DHT22;10637;47.970;7.830;2024-02-21T12:06:01;16.70;99.30
20957;DHT22;10637;47.970;7.830;2024-02-21T12:11:19;16.70;95.50
20957;DHT22;10637;47.970;7.830;2024-02-21T12:16:21;16.30;94.40
20957;DHT22;10637;47.970;7.830;2024-02-21T12:21:41;16.00;94.70
20957;DHT22;10637;47.970;7.830;2024-02-21T12:26:43;16.00;94.00
20957;DHT22;10637;47.970;7.830;2024-02-21T12:31:45;15.60;93.50
20957;DHT22;10637;47.970;7.830;2024-02-21T12:36:48;15.00;94.00
20957;DHT22;10637;47.970;7.830;2024-02-21T12:41:50;14.90;94.50
20957;DHT22;10637;47.970;7.830;2024-02-21T12:46:52;15.00;92.70
20957;DHT22;10637;47.970;7.830;2024-02-21T12:51:56;14.80;92.90
20957;DHT22;10637;47.970;7.830;2024-02-21T12:56:58;14.70;93.60
20957;DHT22;10637;47.970;7.830;2024-02-21T13:02:04;14.50;93.30
20957;DHT22;10637;47.970;7.830;2024-02-21T13:07:06;14.30;93.00
20957;DHT22;10637;47.970;7.830;2024-02-21T13:12:09;14.30;93.20
20957;DHT22;10637;47.970;7.830;2024-02-21T13:17:11;14.40;93.60
20957;DHT22;10637;47.970;7.830;2024-02-21T13:22:13;14.50;93.80
20957;DHT22;10637;47.970;7.830;2024-02-21T13:27:15;14.30;94.10
20957;DHT22;10637;47.970;7.830;2024-02-21T13:32:16;14.20;94.70
20957;DHT22;10637;47.970;7.830;2024-02-21T13:37:18;14.30;95.30
20957;DHT22;10637;47.970;7.830;2024-02-21T13:42:20;14.10;96.20
20957;DHT22;10637;47.970;7.830;2024-02-21T13:47:22;14.20;97.40
20957;DHT22;10637;47.970;7.830;2024-02-21T13:52:23;14.10;98.40
20957;DHT22;10637;47.970;7.830;2024-02-21T13:57:27;14.10;98.40
20957;DHT22;10637;47.970;7.830;2024-02-21T14:02:29;14.10;99.70
20957;DHT22;10637;47.970;7.830;2024-02-21T14:07:32;13.90;99.90
20957;DHT22;10637;47.970;7.830;2024-02-21T14:12:34;13.70;99.90
20957;DHT22;10637;47.970;7.830;2024-02-21T14:17:36;13.50;99.90
20957;DHT22;10637;47.970;7.830;2024-02-21T14:22:38;13.50;99.90
20957;DHT22;10637;47.970;7.830;2024-02-21T14:27:40;13.50;99.90
20957;DHT22;10637;47.970;7.830;2024-02-21T14:32:44;13.50;99.90
20957;DHT22;10637;47.970;7.830;2024-02-21T14:37:47;13.40;99.90
20957;DHT22;10637;47.970;7.830;2024-02-21T14:42:51;13.30;99.90
20957;DHT22;10637;47.970;7.830;2024-02-21T14:47:54;13.30;99.90
20957;DHT22;10637;47.970;7.830;2024-02-21T14:52:57;13.30;99.90
20957;DHT22;10637;47.970;7.830;2024-02-21T14:57:59;13.40;99.90
20957;DHT22;10637;47.970;7.830;2024-02-21T15:03:00;13.20;99.90
20957;DHT22;10637;47.970;7.830;2024-02-21T15:08:03;13.40;99.90
20957;DHT22;10637;47.970;7.830;2024-02-21T15:13:05;13.50;99.90
20957;DHT22;10637;47.970;7.830;2024-02-21T15:18:07;13.60;98.00
20957;DHT22;10637;47.970;7.830;2024-02-21T15:23:10;13.70;98.40
20957;DHT22;10637;47.970;7.830;2024-02-21T15:28:12;13.80;97.60
20957;DHT22;10637;47.970;7.830;2024-02-21T15:33:14;13.80;95.80
20957;DHT22;10637;47.970;7.830;2024-02-21T15:38:16;14.00;94.00
20957;DHT22;10637;47.970;7.830;2024-02-21T15:43:18;14.00;96.30
20957;DHT22;10637;47.970;7.830;2024-02-21T15:48:20;14.00;93.60
20957;DHT22;10637;47.970;7.830;2024-02-21T15:53:26;14.10;90.70
20957;DHT22;10637;47.970;7.830;2024-02-21T15:58:28;14.10;91.50
20957;DHT22;10637;47.970;7.830;2024-02-21T16:03:30;14.10;92.20
20957;DHT22;10637;47.970;7.830;2024-02-21T16:08:33;14.10;93.00
20957;DHT22;10637;47.970;7.830;2024-02-21T16:13:38;13.90;99.00
20957;DHT22;10637;47.970;7.830;2024-02-21T16:18:39;13.70;99.90
20957;DHT22;10637;47.970;7.830;2024-02-21T16:23:41;13.60;99.90
20957;DHT22;10637;47.970;7.830;2024-02-21T16:28:43;13.30;99.90
20957;DHT22;10637;47.970;7.830;2024-02-21T16:33:45;13.20;99.90
20957;DHT22;10637;47.970;7.830;2024-02-21T16:38:47;13.10;99.90
20957;DHT22;10637;47.970;7.830;2024-02-21T16:43:49;13.00;99.90
20957;DHT22;10637;47.970;7.830;2024-02-21T16:48:51;13.00;99.90
20957;DHT22;10637;47.970;7.830;2024-02-21T16:53:53;12.90;99.90
20957;DHT22;10637;47.970;7.830;2024-02-21T16:58:55;12.60;99.90
20957;DHT22;10637;47.970;7.830;2024-02-21T17:03:56;12.50;99.90
20957;DHT22;10637;47.970;7.830;2024-02-21T17:08:58;12.50;99.90
20957;DHT22;10637;47.970;7.830;2024-02-21T17:14:02;12.40;99.90
20957;DHT22;10637;47.970;7.830;2024-02-21T17:19:05;12.20;99.90
20957;DHT22;10637;47.970;7.830;2024-02-21T17:24:07;12.20;99.90
20957;DHT22;10637;47.970;7.830;2024-02-21T17:29:09;12.00;99.90
20957;DHT22;10637;47.970;7.830;2024-02-21T17:34:11;12.00;99.90
20957;DHT22;10637;47.970;7.830;2024-02-21T17:39:13;12.00;99.90
20957;DHT22;10637;47.970;7.830;2024-02-21T17:44:15;12.10;99.90
20957;DHT22;10637;47.970;7.830;2024-02-21T17:49:17;12.10;99.90
20957;DHT22;10637;47.970;7.830;2024-02-21T17:54:19;11.80;99.90
20957;DHT22;10637;47.970;7.830;2024-02-21T17:59:20;11.70;99.90
20957;DHT22;10637;47.970;7.830;2024-02-21T18:04:22;11.60;99.90
20957;DHT22;10637;47.970;7.830;2024-02-21T18:09:25;11.70;99.90
20957;DHT22;10637;47.970;7.830;2024-02-21T18:14:26;12.10;99.90
20957;DHT22;10637;47.970;7.830;2024-02-21T18:19:32;12.40;99.90
20957;DHT22;10637;47.970;7.830;2024-02-21T18:24:34;12.70;99.90
20957;DHT22;10637;47.970;7.830;2024-02-21T18:29:36;12.80;99.90
20957;DHT22;10637;47.970;7.830;2024-02-21T18:34:42;13.10;99.90
20957;DHT22;10637;47.970;7.830;2024-02-21T18:39:44;13.30;99.90
20957;DHT22;10637;47.970;7.830;2024-02-21T18:44:46;13.30;99.90
20957;DHT22;10637;47.970;7.830;2024-02-21T18:49:49;13.20;99.90
20957;DHT22;10637;47.970;7.830;2024-02-21T18:54:51;13.10;99.90
20957;DHT22;10637;47.970;7.830;2024-02-21T18:59:53;13.20;99.90
20957;DHT22;10637;47.970;7.830;2024-02-21T19:04:56;13.20;99.90
20957;DHT22;10637;47.970;7.830;2024-02-21T19:09:58;13.30;99.90
20957;DHT22;10637;47.970;7.830;2024-02-21T19:15:00;13.20;99.90
20957;DHT22;10637;47.970;7.830;2024-02-21T19:20:02;13.20;99.90
20957;DHT22;10637;47.970;7.830;2024-02-21T19:25:04;13.20;99.90
20957;DHT22;10637;47.970;7.830;2024-02-21T19:30:10;13.40;99.90
20957;DHT22;10637;47.970;7.830;2024-02-21T19:35:14;13.40;99.90
20957;DHT22;10637;47.970;7.830;2024-02-21T19:40:16;13.40;99.90
20957;DHT22;10637;47.970;7.830;2024-02-21T19:45:18;13.40;99.90
20957;DHT22;10637;47.970;7.830;2024-02-21T19:50:21;13.40;99.90
20957;DHT22;10637;47.970;7.830;2024-02-21T19:55:24;13.30;99.90
20957;DHT22;10637;47.970;7.830;2024-02-21T20:00:25;13.50;99.90
20957;DHT22;10637;47.970;7.830;2024-02-21T20:05:27;13.60;99.90
20957;DHT22;10637;47.970;7.830;2024-02-21T20:10:29;13.60;99.90
20957;DHT22;10637;47.970;7.830;2024-02-21T20:15:31;13.80;99.90
20957;DHT22;10637;47.970;7.830;2024-02-21T20:20:33;13.90;99.90
20957;DHT22;10637;47.970;7.830;2024-02-21T20:25:36;13.90;99.90
20957;DHT22;10637;47.970;7.830;2024-02-21T20:30:38;13.90;99.90
20957;DHT22;10637;47.970;7.830;2024-02-21T20:35:39;13.90;99.90
20957;DHT22;10637;47.970;7.830;2024-02-21T20:40:42;14.00;99.90
20957;DHT22;10637;47.970;7.830;2024-02-21T20:45:44;14.00;99.90
20957;DHT22;10637;47.970;7.830;2024-02-21T20:50:45;14.10;99.00
20957;DHT22;10637;47.970;7.830;2024-02-21T20:55:47;14.40;97.20
20957;DHT22;10637;47.970;7.830;2024-02-21T21:00:49;14.60;96.10
20957;DHT22;10637;47.970;7.830;2024-02-21T21:05:51;14.70;96.00
20957;DHT22;10637;47.970;7.830;2024-02-21T21:10:53;15.00;95.40
20957;DHT22;10637;47.970;7.830;2024-02-21T21:15:55;15.00;95.60
20957;DHT22;10637;47.970;7.830;2024-02-21T21:20:57;14.40;99.90
20957;DHT22;10637;47.970;7.830;2024-02-21T21:25:59;13.70;99.90
20957;DHT22;10637;47.970;7.830;2024-02-21T21:31:01;13.50;99.90
20957;DHT22;10637;47.970;7.830;2024-02-21T21:36:03;13.30;99.90
20957;DHT22;10637;47.970;7.830;2024-02-21T21:41:07;13.20;99.90
20957;DHT22;10637;47.970;7.830;2024-02-21T21:46:15;13.20;99.90
20957;DHT22;10637;47.970;7.830;2024-02-21T21:51:17;13.40;99.90
20957;DHT22;10637;47.970;7.830;2024-02-21T21:56:18;13.20;99.90
20957;DHT22;10637;47.970;7.830;2024-02-21T22:01:21;12.50;99.90
20957;DHT22;10637;47.970;7.830;2024-02-21T22:06:27;12.20;99.90
20957;DHT22;10637;47.970;7.830;2024-02-21T22:11:29;12.20;99.90
20957;DHT22;10637;47.970;7.830;2024-02-21T22:16:31;12.30;99.90
20957;DHT22;10637;47.970;7.830;2024-02-21T22:21:33;12.40;99.90
20957;DHT22;10637;47.970;7.830;2024-02-21T22:26:35;12.40;99.90
20957;DHT22;10637;47.970;7.830;2024-02-21T22:31:37;12.30;99.90
20957;DHT22;10637;47.970;7.830;2024-02-21T22:36:41;12.40;99.90
20957;DHT22;10637;47.970;7.830;2024-02-21T22:41:43;12.50;99.90
20957;DHT22;10637;47.970;7.830;2024-02-21T22:46:46;12.50;99.90
20957;DHT22;10637;47.970;7.830;2024-02-21T22:51:48;12.50;99.90
20957;DHT22;10637;47.970;7.830;2024-02-21T22:56:50;12.50;99.90
20957;DHT22;10637;47.970;7.830;2024-02-21T23:01:52;12.60;99.90
20957;DHT22;10637;47.970;7.830;2024-02-21T23:06:54;12.50;99.90
20957;DHT22;10637;47.970;7.830;2024-02-21T23:11:56;12.50;99.90
20957;DHT22;10637;47.970;7.830;2024-02-21T23:16:57;12.50;99.90
20957;DHT22;10637;47.970;7.830;2024-02-21T23:21:59;12.60;99.90
20957;DHT22;10637;47.970;7.830;2024-02-21T23:27:02;12.50;99.90
20957;DHT22;10637;47.970;7.830;2024-02-21T23:32:04;12.50;99.90
20957;DHT22;10637;47.970;7.830;2024-02-21T23:37:06;12.40;99.90
20957;DHT22;10637;47.970;7.830;2024-02-21T23:42:08;12.30;99.90
20957;DHT22;10637;47.970;7.830;2024-02-21T23:47:10;12.30;99.90
20957;DHT22;10637;47.970;7.830;2024-02-21T23:52:12;12.20;99.90
20957;DHT22;10637;47.970;7.830;2024-02-21T23:57:15;12.10;99.90
